sensor_id;sensor_type;location;lat;lon;timestamp;pressure;altitude;pressure_sealevel;temperature;humidity
49825;BME280;35714;55.708;37.478;2023-02-19T00:01:16;97795.22;;;-4.85;56.83
49825;BME280;35714;55.708;37.478;2023-02-19T00:03:47;97808.88;;;-4.82;56.71
49825;BME280;35714;55.708;37.478;2023-02-19T00:06:14;97790.09;;;-4.87;56.47
49825;BME280;35714;55.708;37.478;2023-02-19T00:08:39;97789.56;;;-4.82;56.53
49825;BME280;35714;55.708;37.478;2023-02-19T00:11:07;97794.88;;;-4.67;56.02
49825;BME280;35714;55.708;37.478;2023-02-19T00:13:43;97799.91;;;-4.73;55.93
49825;BME280;35714;55.708;37.478;2023-02-19T00:18:45;97798.31;;;-4.82;56.41
49825;BME280;35714;55.708;37.478;2023-02-19T00:21:12;97785.56;;;-4.78;56.55
49825;BME280;35714;55.708;37.478;2023-02-19T00:23:38;97783.16;;;-4.88;56.55
49825;BME280;35714;55.708;37.478;2023-02-19T00:26:06;97775.81;;;-4.78;56.18
49825;BME280;35714;55.708;37.478;2023-02-19T00:28:32;97770.88;;;-4.81;56.28
49825;BME280;35714;55.708;37.478;2023-02-19T00:33:42;97773.56;;;-4.89;56.40
49825;BME280;35714;55.708;37.478;2023-02-19T00:36:07;97769.84;;;-4.95;56.86
49825;BME280;35714;55.708;37.478;2023-02-19T00:38:37;97771.09;;;-4.91;56.43
49825;BME280;35714;55.708;37.478;2023-02-19T00:41:04;97772.31;;;-4.93;56.99
49825;BME280;35714;55.708;37.478;2023-02-19T00:46:39;97753.72;;;-4.85;56.10
49825;BME280;35714;55.708;37.478;2023-02-19T00:49:05;97754.16;;;-4.96;57.08
49825;BME280;35714;55.708;37.478;2023-02-19T00:51:34;97755.94;;;-4.97;57.18
49825;BME280;35714;55.708;37.478;2023-02-19T00:54:01;97751.88;;;-4.99;57.37
49825;BME280;35714;55.708;37.478;2023-02-19T00:56:27;97753.13;;;-4.95;57.31
49825;BME280;35714;55.708;37.478;2023-02-19T00:58:55;97745.97;;;-4.86;57.06
49825;BME280;35714;55.708;37.478;2023-02-19T01:01:20;97736.03;;;-4.84;56.66
49825;BME280;35714;55.708;37.478;2023-02-19T01:03:46;97736.16;;;-4.78;55.86
49825;BME280;35714;55.708;37.478;2023-02-19T01:06:14;97738.41;;;-4.90;56.16
49825;BME280;35714;55.708;37.478;2023-02-19T01:08:40;97725.06;;;-4.96;56.80
49825;BME280;35714;55.708;37.478;2023-02-19T01:11:07;97727.88;;;-4.75;56.37
49825;BME280;35714;55.708;37.478;2023-02-19T01:13:33;97728.75;;;-4.82;56.29
49825;BME280;35714;55.708;37.478;2023-02-19T01:16:27;97719.63;;;-4.80;56.35
49825;BME280;35714;55.708;37.478;2023-02-19T01:18:52;97719.88;;;-5.04;56.72
49825;BME280;35714;55.708;37.478;2023-02-19T01:21:20;97717.78;;;-4.94;56.43
49825;BME280;35714;55.708;37.478;2023-02-19T01:23:50;97712.50;;;-4.94;56.68
49825;BME280;35714;55.708;37.478;2023-02-19T01:26:20;97707.50;;;-4.89;56.76
49825;BME280;35714;55.708;37.478;2023-02-19T01:28:46;97708.38;;;-4.97;56.68
49825;BME280;35714;55.708;37.478;2023-02-19T01:31:15;97709.34;;;-5.13;57.36
49825;BME280;35714;55.708;37.478;2023-02-19T01:33:50;97701.22;;;-5.11;57.87
49825;BME280;35714;55.708;37.478;2023-02-19T01:36:17;97700.06;;;-5.09;57.64
49825;BME280;35714;55.708;37.478;2023-02-19T01:38:43;97699.56;;;-4.89;56.98
49825;BME280;35714;55.708;37.478;2023-02-19T01:41:11;97702.72;;;-4.94;56.81
49825;BME280;35714;55.708;37.478;2023-02-19T01:44:03;97705.47;;;-5.02;57.09
49825;BME280;35714;55.708;37.478;2023-02-19T01:46:31;97714.78;;;-4.91;56.31
49825;BME280;35714;55.708;37.478;2023-02-19T01:49:05;97704.41;;;-5.16;57.17
49825;BME280;35714;55.708;37.478;2023-02-19T01:51:34;97704.66;;;-5.02;56.97
49825;BME280;35714;55.708;37.478;2023-02-19T01:54:03;97702.19;;;-5.04;56.85
49825;BME280;35714;55.708;37.478;2023-02-19T01:56:31;97706.69;;;-5.13;57.25
49825;BME280;35714;55.708;37.478;2023-02-19T01:58:58;97704.59;;;-5.17;57.00
49825;BME280;35714;55.708;37.478;2023-02-19T02:01:24;97703.88;;;-5.11;57.15
49825;BME280;35714;55.708;37.478;2023-02-19T02:03:50;97696.09;;;-5.04;56.94
49825;BME280;35714;55.708;37.478;2023-02-19T02:06:25;97697.16;;;-5.14;56.92
49825;BME280;35714;55.708;37.478;2023-02-19T02:08:54;97697.91;;;-5.28;57.42
49825;BME280;35714;55.708;37.478;2023-02-19T02:11:44;97686.34;;;-5.27;57.37
49825;BME280;35714;55.708;37.478;2023-02-19T02:14:11;97697.84;;;-5.20;57.13
49825;BME280;35714;55.708;37.478;2023-02-19T02:22:27;97697.50;;;-5.17;57.71
49825;BME280;35714;55.708;37.478;2023-02-19T02:28:21;97679.09;;;-5.10;57.91
49825;BME280;35714;55.708;37.478;2023-02-19T02:31:04;97691.59;;;-5.04;56.95
49825;BME280;35714;55.708;37.478;2023-02-19T02:36:22;97695.25;;;-5.05;57.50
49825;BME280;35714;55.708;37.478;2023-02-19T02:38:52;97696.66;;;-5.17;57.47
49825;BME280;35714;55.708;37.478;2023-02-19T02:41:20;97688.00;;;-5.26;57.75
49825;BME280;35714;55.708;37.478;2023-02-19T02:43:46;97693.09;;;-5.24;57.41
49825;BME280;35714;55.708;37.478;2023-02-19T02:46:19;97660.34;;;-5.38;57.27
49825;BME280;35714;55.708;37.478;2023-02-19T02:48:56;97678.41;;;-5.27;57.46
49825;BME280;35714;55.708;37.478;2023-02-19T02:56:49;97677.63;;;-5.13;57.41
49825;BME280;35714;55.708;37.478;2023-02-19T02:59:19;97669.84;;;-5.29;57.18
49825;BME280;35714;55.708;37.478;2023-02-19T03:01:50;97670.72;;;-5.37;57.95
49825;BME280;35714;55.708;37.478;2023-02-19T03:04:56;97680.50;;;-5.37;58.19
49825;BME280;35714;55.708;37.478;2023-02-19T03:07:59;97674.00;;;-5.12;57.23
49825;BME280;35714;55.708;37.478;2023-02-19T03:10:34;97682.72;;;-5.26;57.07
49825;BME280;35714;55.708;37.478;2023-02-19T03:13:06;97680.94;;;-5.34;57.85
49825;BME280;35714;55.708;37.478;2023-02-19T03:15:57;97674.84;;;-5.34;58.12
49825;BME280;35714;55.708;37.478;2023-02-19T03:18:48;97670.13;;;-5.24;57.91
49825;BME280;35714;55.708;37.478;2023-02-19T03:21:37;97673.66;;;-5.09;57.72
49825;BME280;35714;55.708;37.478;2023-02-19T03:24:09;97667.66;;;-5.26;58.14
49825;BME280;35714;55.708;37.478;2023-02-19T03:26:55;97668.38;;;-5.32;58.99
49825;BME280;35714;55.708;37.478;2023-02-19T03:29:27;97665.19;;;-5.27;58.70
49825;BME280;35714;55.708;37.478;2023-02-19T03:32:11;97657.00;;;-5.32;58.90
49825;BME280;35714;55.708;37.478;2023-02-19T03:35:00;97658.75;;;-5.24;58.95
49825;BME280;35714;55.708;37.478;2023-02-19T03:37:44;97653.56;;;-5.18;59.01
49825;BME280;35714;55.708;37.478;2023-02-19T03:40:12;97645.00;;;-5.20;58.82
49825;BME280;35714;55.708;37.478;2023-02-19T03:43:00;97648.28;;;-5.18;58.79
49825;BME280;35714;55.708;37.478;2023-02-19T03:45:37;97638.66;;;-5.11;58.28
49825;BME280;35714;55.708;37.478;2023-02-19T03:56:35;97644.66;;;-5.17;58.15
49825;BME280;35714;55.708;37.478;2023-02-19T03:59:42;97644.41;;;-5.07;57.87
49825;BME280;35714;55.708;37.478;2023-02-19T04:02:21;97637.09;;;-5.05;58.00
49825;BME280;35714;55.708;37.478;2023-02-19T04:07:32;97637.53;;;-5.16;57.87
49825;BME280;35714;55.708;37.478;2023-02-19T04:09:59;97643.34;;;-5.21;58.08
49825;BME280;35714;55.708;37.478;2023-02-19T04:12:25;97633.16;;;-5.24;58.25
49825;BME280;35714;55.708;37.478;2023-02-19T04:14:57;97629.97;;;-5.19;58.40
49825;BME280;35714;55.708;37.478;2023-02-19T04:17:43;97621.16;;;-5.12;58.16
49825;BME280;35714;55.708;37.478;2023-02-19T04:20:12;97629.00;;;-5.03;57.84
49825;BME280;35714;55.708;37.478;2023-02-19T04:22:39;97621.97;;;-5.11;58.01
49825;BME280;35714;55.708;37.478;2023-02-19T04:25:06;97627.78;;;-5.16;58.15
49825;BME280;35714;55.708;37.478;2023-02-19T04:27:38;97628.31;;;-5.20;58.41
49825;BME280;35714;55.708;37.478;2023-02-19T04:30:10;97635.06;;;-5.18;58.38
49825;BME280;35714;55.708;37.478;2023-02-19T04:32:36;97627.00;;;-5.01;57.60
49825;BME280;35714;55.708;37.478;2023-02-19T04:35:02;97619.13;;;-5.24;58.48
49825;BME280;35714;55.708;37.478;2023-02-19T04:37:29;97624.41;;;-5.24;58.85
49825;BME280;35714;55.708;37.478;2023-02-19T04:39:55;97634.25;;;-5.18;59.04
49825;BME280;35714;55.708;37.478;2023-02-19T04:42:20;97615.94;;;-5.20;58.95
49825;BME280;35714;55.708;37.478;2023-02-19T04:44:46;97632.78;;;-5.21;59.00
49825;BME280;35714;55.708;37.478;2023-02-19T04:47:11;97625.97;;;-5.15;58.60
49825;BME280;35714;55.708;37.478;2023-02-19T04:49:37;97631.44;;;-5.17;58.63
49825;BME280;35714;55.708;37.478;2023-02-19T04:52:03;97621.88;;;-5.18;58.45
49825;BME280;35714;55.708;37.478;2023-02-19T04:54:28;97619.97;;;-5.09;58.01
49825;BME280;35714;55.708;37.478;2023-02-19T04:56:54;97615.28;;;-5.22;58.55
49825;BME280;35714;55.708;37.478;2023-02-19T04:59:20;97616.59;;;-5.18;58.39
49825;BME280;35714;55.708;37.478;2023-02-19T05:01:45;97611.13;;;-5.16;58.63
49825;BME280;35714;55.708;37.478;2023-02-19T05:04:11;97603.28;;;-5.10;58.08
49825;BME280;35714;55.708;37.478;2023-02-19T05:06:37;97608.03;;;-5.20;58.80
49825;BME280;35714;55.708;37.478;2023-02-19T05:09:02;97612.72;;;-5.30;59.25
49825;BME280;35714;55.708;37.478;2023-02-19T05:11:28;97613.31;;;-5.20;58.82
49825;BME280;35714;55.708;37.478;2023-02-19T05:13:54;97604.00;;;-5.16;58.95
49825;BME280;35714;55.708;37.478;2023-02-19T05:16:20;97600.81;;;-5.26;58.93
49825;BME280;35714;55.708;37.478;2023-02-19T05:18:46;97597.47;;;-5.20;58.91
49825;BME280;35714;55.708;37.478;2023-02-19T05:21:12;97596.25;;;-5.17;58.79
49825;BME280;35714;55.708;37.478;2023-02-19T05:23:38;97601.38;;;-5.16;58.98
49825;BME280;35714;55.708;37.478;2023-02-19T05:26:22;97599.28;;;-5.05;58.58
49825;BME280;35714;55.708;37.478;2023-02-19T05:28:50;97596.38;;;-5.11;58.40
49825;BME280;35714;55.708;37.478;2023-02-19T05:31:17;97593.38;;;-5.08;58.35
49825;BME280;35714;55.708;37.478;2023-02-19T05:33:42;97590.03;;;-5.01;58.33
49825;BME280;35714;55.708;37.478;2023-02-19T05:36:12;97577.06;;;-4.96;57.82
49825;BME280;35714;55.708;37.478;2023-02-19T05:38:39;97591.19;;;-5.04;58.25
49825;BME280;35714;55.708;37.478;2023-02-19T05:41:12;97585.38;;;-4.99;57.76
49825;BME280;35714;55.708;37.478;2023-02-19T05:43:39;97575.97;;;-5.02;57.89
49825;BME280;35714;55.708;37.478;2023-02-19T05:46:06;97590.28;;;-4.81;57.77
49825;BME280;35714;55.708;37.478;2023-02-19T05:48:32;97584.63;;;-4.93;57.83
49825;BME280;35714;55.708;37.478;2023-02-19T05:51:03;97589.94;;;-4.93;58.39
49825;BME280;35714;55.708;37.478;2023-02-19T05:53:29;97592.09;;;-4.97;57.96
49825;BME280;35714;55.708;37.478;2023-02-19T05:55:56;97597.13;;;-4.87;58.01
49825;BME280;35714;55.708;37.478;2023-02-19T05:58:22;97587.44;;;-4.80;57.64
49825;BME280;35714;55.708;37.478;2023-02-19T06:00:47;97573.94;;;-4.70;56.42
49825;BME280;35714;55.708;37.478;2023-02-19T06:03:13;97577.00;;;-4.73;56.92
49825;BME280;35714;55.708;37.478;2023-02-19T06:05:39;97583.38;;;-4.82;57.49
49825;BME280;35714;55.708;37.478;2023-02-19T06:08:04;97580.53;;;-4.81;57.69
49825;BME280;35714;55.708;37.478;2023-02-19T06:10:30;97575.16;;;-4.73;57.49
49825;BME280;35714;55.708;37.478;2023-02-19T06:12:55;97584.34;;;-4.68;57.61
49825;BME280;35714;55.708;37.478;2023-02-19T06:15:21;97580.91;;;-4.54;56.51
49825;BME280;35714;55.708;37.478;2023-02-19T06:17:47;97568.13;;;-4.65;56.55
49825;BME280;35714;55.708;37.478;2023-02-19T06:20:13;97577.78;;;-4.58;57.28
49825;BME280;35714;55.708;37.478;2023-02-19T06:22:39;97578.59;;;-4.42;56.27
49825;BME280;35714;55.708;37.478;2023-02-19T06:25:05;97580.31;;;-4.35;55.50
49825;BME280;35714;55.708;37.478;2023-02-19T06:27:32;97583.44;;;-4.46;56.13
49825;BME280;35714;55.708;37.478;2023-02-19T06:29:58;97568.66;;;-4.55;56.53
49825;BME280;35714;55.708;37.478;2023-02-19T06:32:24;97581.13;;;-4.34;55.83
49825;BME280;35714;55.708;37.478;2023-02-19T06:34:50;97589.59;;;-4.39;55.81
49825;BME280;35714;55.708;37.478;2023-02-19T06:37:15;97577.09;;;-4.30;55.28
49825;BME280;35714;55.708;37.478;2023-02-19T06:39:41;97578.22;;;-4.39;55.67
49825;BME280;35714;55.708;37.478;2023-02-19T06:42:08;97573.38;;;-4.36;56.15
49825;BME280;35714;55.708;37.478;2023-02-19T06:44:33;97568.72;;;-4.33;56.28
49825;BME280;35714;55.708;37.478;2023-02-19T06:46:59;97556.53;;;-4.13;54.68
49825;BME280;35714;55.708;37.478;2023-02-19T06:49:24;97548.91;;;-4.01;53.75
49825;BME280;35714;55.708;37.478;2023-02-19T06:51:50;97560.34;;;-4.01;53.52
49825;BME280;35714;55.708;37.478;2023-02-19T06:54:16;97553.38;;;-4.02;53.34
49825;BME280;35714;55.708;37.478;2023-02-19T06:56:41;97545.28;;;-4.15;53.25
49825;BME280;35714;55.708;37.478;2023-02-19T06:59:10;97550.09;;;-4.25;53.82
49825;BME280;35714;55.708;37.478;2023-02-19T07:01:37;97536.69;;;-4.39;54.33
49825;BME280;35714;55.708;37.478;2023-02-19T07:04:03;97491.53;;;-4.74;54.50
49825;BME280;35714;55.708;37.478;2023-02-19T07:06:30;97549.94;;;-4.39;54.23
49825;BME280;35714;55.708;37.478;2023-02-19T07:08:57;97538.72;;;-4.41;54.30
49825;BME280;35714;55.708;37.478;2023-02-19T07:11:23;97534.72;;;-4.37;54.71
49825;BME280;35714;55.708;37.478;2023-02-19T07:14:01;97549.66;;;-4.44;54.90
49825;BME280;35714;55.708;37.478;2023-02-19T07:16:27;97531.41;;;-4.39;54.57
49825;BME280;35714;55.708;37.478;2023-02-19T07:18:55;97524.97;;;-4.51;54.90
49825;BME280;35714;55.708;37.478;2023-02-19T07:21:22;97536.13;;;-4.56;55.15
49825;BME280;35714;55.708;37.478;2023-02-19T07:23:48;97540.94;;;-4.59;55.75
49825;BME280;35714;55.708;37.478;2023-02-19T07:26:15;97530.66;;;-4.32;54.66
49825;BME280;35714;55.708;37.478;2023-02-19T07:28:43;97526.88;;;-4.45;55.52
49825;BME280;35714;55.708;37.478;2023-02-19T07:31:09;97519.13;;;-4.46;55.23
49825;BME280;35714;55.708;37.478;2023-02-19T07:33:35;97533.50;;;-4.34;55.00
49825;BME280;35714;55.708;37.478;2023-02-19T07:36:01;97528.88;;;-4.47;55.36
49825;BME280;35714;55.708;37.478;2023-02-19T07:38:27;97513.50;;;-4.58;56.13
49825;BME280;35714;55.708;37.478;2023-02-19T07:40:55;97521.38;;;-4.43;56.20
49825;BME280;35714;55.708;37.478;2023-02-19T07:43:22;97518.59;;;-4.57;56.81
49825;BME280;35714;55.708;37.478;2023-02-19T07:45:49;97515.41;;;-4.52;57.51
49825;BME280;35714;55.708;37.478;2023-02-19T07:48:15;97521.28;;;-4.35;56.77
49825;BME280;35714;55.708;37.478;2023-02-19T07:50:41;97507.38;;;-4.22;55.18
49825;BME280;35714;55.708;37.478;2023-02-19T07:53:06;97522.63;;;-4.24;56.20
49825;BME280;35714;55.708;37.478;2023-02-19T07:55:32;97515.31;;;-4.22;56.27
49825;BME280;35714;55.708;37.478;2023-02-19T07:57:59;97511.56;;;-3.91;54.73
49825;BME280;35714;55.708;37.478;2023-02-19T08:00:25;97505.75;;;-4.02;54.75
49825;BME280;35714;55.708;37.478;2023-02-19T08:02:52;97502.47;;;-4.04;55.45
49825;BME280;35714;55.708;37.478;2023-02-19T08:05:28;97500.03;;;-4.05;55.24
49825;BME280;35714;55.708;37.478;2023-02-19T08:07:55;97494.03;;;-4.14;55.71
49825;BME280;35714;55.708;37.478;2023-02-19T08:10:21;97499.19;;;-4.06;55.21
49825;BME280;35714;55.708;37.478;2023-02-19T08:13:10;97497.28;;;-3.90;54.93
49825;BME280;35714;55.708;37.478;2023-02-19T08:18:30;97502.19;;;-3.66;54.39
49825;BME280;35714;55.708;37.478;2023-02-19T08:20:58;97502.44;;;-3.60;53.92
49825;BME280;35714;55.708;37.478;2023-02-19T08:23:24;97502.97;;;-3.43;53.35
49825;BME280;35714;55.708;37.478;2023-02-19T08:25:52;97498.47;;;-3.43;53.13
49825;BME280;35714;55.708;37.478;2023-02-19T08:28:18;97499.25;;;-3.49;53.59
49825;BME280;35714;55.708;37.478;2023-02-19T08:30:45;97486.72;;;-3.34;52.51
49825;BME280;35714;55.708;37.478;2023-02-19T08:33:14;97489.97;;;-3.32;52.91
49825;BME280;35714;55.708;37.478;2023-02-19T08:35:40;97490.34;;;-3.41;52.58
49825;BME280;35714;55.708;37.478;2023-02-19T08:38:08;97481.66;;;-3.57;53.15
49825;BME280;35714;55.708;37.478;2023-02-19T08:40:36;97489.03;;;-3.52;52.75
49825;BME280;35714;55.708;37.478;2023-02-19T08:43:07;97496.38;;;-3.54;53.38
49825;BME280;35714;55.708;37.478;2023-02-19T08:45:33;97505.38;;;-3.49;53.04
49825;BME280;35714;55.708;37.478;2023-02-19T08:47:59;97491.41;;;-3.64;52.98
49825;BME280;35714;55.708;37.478;2023-02-19T08:50:25;97483.53;;;-3.51;53.23
49825;BME280;35714;55.708;37.478;2023-02-19T08:52:51;97494.28;;;-3.59;53.19
49825;BME280;35714;55.708;37.478;2023-02-19T08:55:17;97475.94;;;-3.60;53.65
49825;BME280;35714;55.708;37.478;2023-02-19T08:57:43;97475.16;;;-3.54;53.32
49825;BME280;35714;55.708;37.478;2023-02-19T09:00:09;97474.56;;;-3.56;53.45
49825;BME280;35714;55.708;37.478;2023-02-19T09:02:35;97477.03;;;-3.48;53.21
49825;BME280;35714;55.708;37.478;2023-02-19T09:05:00;97469.25;;;-3.56;53.01
49825;BME280;35714;55.708;37.478;2023-02-19T09:07:27;97455.09;;;-3.70;53.32
49825;BME280;35714;55.708;37.478;2023-02-19T09:09:52;97464.88;;;-3.71;53.85
49825;BME280;35714;55.708;37.478;2023-02-19T09:12:18;97472.28;;;-3.59;53.69
49825;BME280;35714;55.708;37.478;2023-02-19T09:14:44;97459.69;;;-3.51;53.84
49825;BME280;35714;55.708;37.478;2023-02-19T09:17:11;97460.34;;;-3.49;53.50
49825;BME280;35714;55.708;37.478;2023-02-19T09:19:36;97459.75;;;-3.44;53.48
49825;BME280;35714;55.708;37.478;2023-02-19T09:22:03;97437.41;;;-3.35;52.80
49825;BME280;35714;55.708;37.478;2023-02-19T09:24:29;97459.38;;;-3.41;53.04
49825;BME280;35714;55.708;37.478;2023-02-19T09:26:55;97458.19;;;-3.32;52.68
49825;BME280;35714;55.708;37.478;2023-02-19T09:29:24;97451.56;;;-3.49;53.31
49825;BME280;35714;55.708;37.478;2023-02-19T09:31:50;97447.75;;;-3.40;52.71
49825;BME280;35714;55.708;37.478;2023-02-19T09:34:15;97441.84;;;-3.42;53.14
49825;BME280;35714;55.708;37.478;2023-02-19T09:36:41;97452.47;;;-3.35;52.40
49825;BME280;35714;55.708;37.478;2023-02-19T09:39:08;97440.94;;;-3.56;53.61
49825;BME280;35714;55.708;37.478;2023-02-19T09:41:46;97447.09;;;-3.49;53.98
49825;BME280;35714;55.708;37.478;2023-02-19T09:44:20;97444.63;;;-3.50;53.89
49825;BME280;35714;55.708;37.478;2023-02-19T09:46:49;97446.34;;;-3.36;53.75
49825;BME280;35714;55.708;37.478;2023-02-19T09:49:19;97439.00;;;-3.40;53.74
49825;BME280;35714;55.708;37.478;2023-02-19T09:51:54;97444.81;;;-3.23;53.37
49825;BME280;35714;55.708;37.478;2023-02-19T09:54:25;97432.53;;;-3.31;53.28
49825;BME280;35714;55.708;37.478;2023-02-19T09:56:54;97442.38;;;-3.18;52.32
49825;BME280;35714;55.708;37.478;2023-02-19T09:59:29;97428.66;;;-3.29;53.09
49825;BME280;35714;55.708;37.478;2023-02-19T10:02:12;97416.97;;;-3.41;53.63
49825;BME280;35714;55.708;37.478;2023-02-19T10:04:41;97410.03;;;-3.42;53.67
49825;BME280;35714;55.708;37.478;2023-02-19T10:07:21;97423.16;;;-3.27;53.27
49825;BME280;35714;55.708;37.478;2023-02-19T10:10:00;97425.59;;;-3.26;52.80
49825;BME280;35714;55.708;37.478;2023-02-19T10:12:29;97418.50;;;-3.25;52.74
49825;BME280;35714;55.708;37.478;2023-02-19T10:15:04;97424.38;;;-3.30;53.03
49825;BME280;35714;55.708;37.478;2023-02-19T10:17:32;97427.81;;;-3.36;53.00
49825;BME280;35714;55.708;37.478;2023-02-19T10:19:59;97425.19;;;-3.29;53.12
49825;BME280;35714;55.708;37.478;2023-02-19T10:22:34;97426.47;;;-3.18;52.15
49825;BME280;35714;55.708;37.478;2023-02-19T10:25:02;97425.00;;;-3.28;52.81
49825;BME280;35714;55.708;37.478;2023-02-19T10:27:29;97421.16;;;-3.18;52.64
49825;BME280;35714;55.708;37.478;2023-02-19T10:29:56;97427.41;;;-3.33;53.29
49825;BME280;35714;55.708;37.478;2023-02-19T10:32:25;97434.41;;;-3.25;53.46
49825;BME280;35714;55.708;37.478;2023-02-19T10:37:35;97417.50;;;-3.17;52.70
49825;BME280;35714;55.708;37.478;2023-02-19T10:40:13;97428.38;;;-2.99;52.35
49825;BME280;35714;55.708;37.478;2023-02-19T10:42:44;97421.47;;;-3.00;52.33
49825;BME280;35714;55.708;37.478;2023-02-19T10:45:23;97422.03;;;-3.11;52.95
49825;BME280;35714;55.708;37.478;2023-02-19T10:47:50;97417.16;;;-3.01;52.85
49825;BME280;35714;55.708;37.478;2023-02-19T10:50:35;97414.78;;;-2.82;52.64
49825;BME280;35714;55.708;37.478;2023-02-19T10:53:20;97409.50;;;-2.69;52.19
49825;BME280;35714;55.708;37.478;2023-02-19T10:55:47;97393.22;;;-2.59;51.95
49825;BME280;35714;55.708;37.478;2023-02-19T10:58:24;97400.81;;;-2.36;51.58
49825;BME280;35714;55.708;37.478;2023-02-19T11:01:12;97398.56;;;-2.12;50.54
49825;BME280;35714;55.708;37.478;2023-02-19T11:03:38;97401.84;;;-1.97;49.89
49825;BME280;35714;55.708;37.478;2023-02-19T11:06:06;97396.94;;;-1.93;49.64
49825;BME280;35714;55.708;37.478;2023-02-19T11:08:50;97406.16;;;-1.89;50.10
49825;BME280;35714;55.708;37.478;2023-02-19T11:13:55;97390.00;;;-1.74;48.77
49825;BME280;35714;55.708;37.478;2023-02-19T11:16:37;97405.53;;;-1.65;48.07
49825;BME280;35714;55.708;37.478;2023-02-19T11:19:04;97388.56;;;-1.84;48.25
49825;BME280;35714;55.708;37.478;2023-02-19T11:21:30;97398.59;;;-1.79;47.91
49825;BME280;35714;55.708;37.478;2023-02-19T11:24:00;97396.94;;;-1.93;48.41
49825;BME280;35714;55.708;37.478;2023-02-19T11:26:31;97394.50;;;-1.88;48.17
49825;BME280;35714;55.708;37.478;2023-02-19T11:29:01;97396.13;;;-2.01;48.63
49825;BME280;35714;55.708;37.478;2023-02-19T11:31:35;97404.91;;;-2.07;48.84
49825;BME280;35714;55.708;37.478;2023-02-19T11:34:02;97398.59;;;-2.26;49.44
49825;BME280;35714;55.708;37.478;2023-02-19T11:37:10;97396.97;;;-2.13;49.08
49825;BME280;35714;55.708;37.478;2023-02-19T11:39:38;97389.38;;;-2.03;48.69
49825;BME280;35714;55.708;37.478;2023-02-19T11:54:14;97393.66;;;-2.42;49.35
49825;BME280;35714;55.708;37.478;2023-02-19T11:56:42;97385.47;;;-2.47;49.51
49825;BME280;35714;55.708;37.478;2023-02-19T11:59:18;97384.69;;;-2.48;49.26
49825;BME280;35714;55.708;37.478;2023-02-19T12:07:35;97375.66;;;-2.67;49.69
49825;BME280;35714;55.708;37.478;2023-02-19T12:10:20;97387.88;;;-2.79;50.54
49825;BME280;35714;55.708;37.478;2023-02-19T12:13:03;97390.31;;;-2.84;50.93
49825;BME280;35714;55.708;37.478;2023-02-19T12:30:24;97383.38;;;-3.34;52.26
49825;BME280;35714;55.708;37.478;2023-02-19T12:33:21;97398.66;;;-3.36;52.43
49825;BME280;35714;55.708;37.478;2023-02-19T12:38:21;97363.69;;;-3.59;53.44
49825;BME280;35714;55.708;37.478;2023-02-19T12:43:59;97384.34;;;-3.41;53.20
49825;BME280;35714;55.708;37.478;2023-02-19T12:46:30;97390.00;;;-3.51;53.11
49825;BME280;35714;55.708;37.478;2023-02-19T12:51:49;97391.50;;;-3.42;53.95
49825;BME280;35714;55.708;37.478;2023-02-19T12:54:23;97390.13;;;-3.31;53.77
49825;BME280;35714;55.708;37.478;2023-02-19T12:57:05;97387.72;;;-3.19;53.51
49825;BME280;35714;55.708;37.478;2023-02-19T12:59:40;97388.94;;;-3.22;53.10
49825;BME280;35714;55.708;37.478;2023-02-19T13:02:29;97396.66;;;-3.27;53.35
49825;BME280;35714;55.708;37.478;2023-02-19T13:05:12;97396.19;;;-3.44;53.24
49825;BME280;35714;55.708;37.478;2023-02-19T13:10:58;97395.53;;;-3.46;54.54
49825;BME280;35714;55.708;37.478;2023-02-19T13:13:38;97397.78;;;-3.43;54.53
49825;BME280;35714;55.708;37.478;2023-02-19T13:16:10;97395.69;;;-3.54;54.96
49825;BME280;35714;55.708;37.478;2023-02-19T13:18:48;97396.88;;;-3.64;55.04
49825;BME280;35714;55.708;37.478;2023-02-19T13:21:16;97394.59;;;-3.67;55.58
49825;BME280;35714;55.708;37.478;2023-02-19T13:24:06;97396.31;;;-3.52;55.06
49825;BME280;35714;55.708;37.478;2023-02-19T13:32:24;97394.75;;;-3.75;56.29
49825;BME280;35714;55.708;37.478;2023-02-19T13:37:40;97392.06;;;-3.82;56.58
49825;BME280;35714;55.708;37.478;2023-02-19T13:40:26;97393.38;;;-3.71;56.59
49825;BME280;35714;55.708;37.478;2023-02-19T13:42:56;97392.47;;;-3.85;56.93
49825;BME280;35714;55.708;37.478;2023-02-19T13:45:30;97397.53;;;-3.90;57.34
49825;BME280;35714;55.708;37.478;2023-02-19T13:48:00;97381.88;;;-3.85;57.12
49825;BME280;35714;55.708;37.478;2023-02-19T13:50:32;97384.38;;;-3.76;56.69
49825;BME280;35714;55.708;37.478;2023-02-19T13:52:59;97386.97;;;-3.83;57.22
49825;BME280;35714;55.708;37.478;2023-02-19T14:00:59;97377.56;;;-3.86;57.18
49825;BME280;35714;55.708;37.478;2023-02-19T14:03:28;97384.91;;;-3.88;57.58
49825;BME280;35714;55.708;37.478;2023-02-19T14:06:06;97381.44;;;-3.88;57.65
49825;BME280;35714;55.708;37.478;2023-02-19T14:08:59;97372.97;;;-4.05;57.74
49825;BME280;35714;55.708;37.478;2023-02-19T14:17:23;97365.69;;;-3.96;57.79
49825;BME280;35714;55.708;37.478;2023-02-19T14:27:53;97359.06;;;-4.14;58.78
49825;BME280;35714;55.708;37.478;2023-02-19T14:30:21;97368.53;;;-3.98;58.74
49825;BME280;35714;55.708;37.478;2023-02-19T14:32:49;97357.91;;;-4.05;58.23
49825;BME280;35714;55.708;37.478;2023-02-19T14:35:24;97374.53;;;-4.11;58.79
49825;BME280;35714;55.708;37.478;2023-02-19T14:37:54;97373.94;;;-4.13;58.70
49825;BME280;35714;55.708;37.478;2023-02-19T14:40:24;97368.41;;;-4.18;59.07
49825;BME280;35714;55.708;37.478;2023-02-19T14:42:53;97354.47;;;-4.27;59.53
49825;BME280;35714;55.708;37.478;2023-02-19T14:45:20;97350.47;;;-4.23;59.57
49825;BME280;35714;55.708;37.478;2023-02-19T14:47:47;97346.78;;;-4.22;59.61
49825;BME280;35714;55.708;37.478;2023-02-19T14:50:29;97345.97;;;-4.22;59.98
49825;BME280;35714;55.708;37.478;2023-02-19T14:52:58;97353.53;;;-4.19;60.01
49825;BME280;35714;55.708;37.478;2023-02-19T14:55:31;97348.47;;;-4.14;60.04
49825;BME280;35714;55.708;37.478;2023-02-19T15:00:45;97338.69;;;-4.13;59.34
49825;BME280;35714;55.708;37.478;2023-02-19T15:03:29;97347.34;;;-3.98;59.20
49825;BME280;35714;55.708;37.478;2023-02-19T15:06:11;97348.19;;;-3.97;58.44
49825;BME280;35714;55.708;37.478;2023-02-19T15:08:42;97353.13;;;-3.88;58.02